createdAt,value
2023-05-14T00:02:26.630Z,7.40
2023-05-14T00:04:56.283Z,7.73
2023-05-14T00:07:30.850Z,7.77
2023-05-14T00:09:59.249Z,7.50
2023-05-14T00:12:27.843Z,7.37
2023-05-14T00:14:56.036Z,7.60
2023-05-14T00:17:24.525Z,7.00
2023-05-14T00:19:52.684Z,6.63
2023-05-14T00:22:22.352Z,6.80
2023-05-14T00:24:50.578Z,7.07
2023-05-14T00:27:18.754Z,5.83
2023-05-14T00:29:46.915Z,6.60
2023-05-14T00:32:15.037Z,6.63
2023-05-14T00:34:43.266Z,6.07
2023-05-14T00:37:11.419Z,6.63
2023-05-14T00:39:41.000Z,5.40
2023-05-14T00:42:09.365Z,5.63
2023-05-14T00:44:37.604Z,6.00
2023-05-14T00:47:06.525Z,5.67
2023-05-14T00:49:35.346Z,6.07
2023-05-14T00:52:03.996Z,5.10
2023-05-14T00:54:32.850Z,5.20
2023-05-14T00:57:03.286Z,5.10
2023-05-14T00:59:31.573Z,4.57
2023-05-14T01:01:59.738Z,4.20
2023-05-14T01:04:28.265Z,4.37
2023-05-14T01:07:08.381Z,3.90
2023-05-14T01:09:43.949Z,4.50
2023-05-14T01:12:20.952Z,3.97
2023-05-14T01:14:56.269Z,3.67
2023-05-14T01:17:28.305Z,3.83
2023-05-14T01:19:56.901Z,3.90
2023-05-14T01:22:26.513Z,4.27
2023-05-14T01:24:54.742Z,3.87
2023-05-14T01:27:28.797Z,4.60
2023-05-14T01:30:04.548Z,4.17
2023-05-14T01:32:34.976Z,4.23
2023-05-14T01:35:03.894Z,3.97
2023-05-14T01:37:34.258Z,3.97
2023-05-14T01:40:03.789Z,3.40
2023-05-14T01:42:32.727Z,3.53
2023-05-14T01:45:01.216Z,3.50
2023-05-14T01:47:29.588Z,3.63
2023-05-14T01:49:57.800Z,3.87
2023-05-14T01:52:25.977Z,3.50
2023-05-14T01:54:55.650Z,3.93
2023-05-14T01:57:23.960Z,3.63
2023-05-14T01:59:52.248Z,3.37
2023-05-14T02:02:20.465Z,3.03
2023-05-14T02:04:48.669Z,3.90
2023-05-14T02:07:16.938Z,3.20
2023-05-14T02:09:45.227Z,3.00
2023-05-14T02:12:14.859Z,4.03
2023-05-14T02:14:43.095Z,3.63
2023-05-14T02:17:11.253Z,4.87
2023-05-14T02:19:39.412Z,4.90
2023-05-14T02:22:07.607Z,4.60
2023-05-14T02:24:35.841Z,5.43
2023-05-14T02:27:04.026Z,4.57
2023-05-14T02:29:33.669Z,5.03
2023-05-14T02:32:01.923Z,6.33
2023-05-14T02:34:30.103Z,5.83
2023-05-14T02:36:58.267Z,5.87
2023-05-14T02:39:26.499Z,5.80
2023-05-14T02:41:54.868Z,6.33
2023-05-14T02:44:23.054Z,6.70
2023-05-14T02:46:53.144Z,5.87
2023-05-14T02:49:21.580Z,6.30
2023-05-14T02:51:49.802Z,6.13
2023-05-14T02:54:18.031Z,5.77
2023-05-14T02:56:46.234Z,6.57
2023-05-14T02:59:14.606Z,6.27
2023-05-14T03:01:43.410Z,6.63
2023-05-14T03:04:13.595Z,6.33
2023-05-14T03:06:41.897Z,6.80
2023-05-14T03:09:10.232Z,6.57
2023-05-14T03:11:38.545Z,6.47
2023-05-14T03:14:06.794Z,6.13
2023-05-14T03:16:35.023Z,5.70
2023-05-14T03:19:04.091Z,6.00
2023-05-14T03:21:33.818Z,6.70
2023-05-14T03:24:02.013Z,7.00
2023-05-14T03:26:30.221Z,7.10
2023-05-14T03:28:58.403Z,6.83
2023-05-14T03:31:26.943Z,6.70
2023-05-14T03:33:55.182Z,7.00
2023-05-14T03:36:23.395Z,6.73
2023-05-14T03:38:53.029Z,6.17
2023-05-14T03:41:22.029Z,6.20
2023-05-14T03:43:50.214Z,6.23
2023-05-14T03:46:18.391Z,5.37
2023-05-14T03:48:46.656Z,7.03
2023-05-14T03:51:14.922Z,6.87
2023-05-14T03:53:43.145Z,7.23
2023-05-14T03:56:12.691Z,6.93
2023-05-14T03:58:40.960Z,6.37
2023-05-14T04:01:09.188Z,6.20
2023-05-14T04:03:37.632Z,5.37
2023-05-14T04:06:06.395Z,6.37
2023-05-14T04:08:34.498Z,6.10
2023-05-14T04:11:02.647Z,6.13
2023-05-14T04:13:32.428Z,5.87
2023-05-14T04:16:00.741Z,5.73
2023-05-14T04:18:28.990Z,6.17
2023-05-14T04:20:57.183Z,5.70
2023-05-14T04:23:25.297Z,5.37
2023-05-14T04:25:53.532Z,5.80
2023-05-14T04:28:21.712Z,5.77
2023-05-14T04:30:51.973Z,5.73
2023-05-14T04:33:20.120Z,6.13
2023-05-14T04:35:48.551Z,5.13
2023-05-14T04:38:16.738Z,5.80
2023-05-14T04:40:44.938Z,6.17
2023-05-14T04:43:13.187Z,6.27
2023-05-14T04:45:43.234Z,5.27
2023-05-14T04:48:12.812Z,5.07
2023-05-14T04:50:40.975Z,5.10
2023-05-14T04:53:09.171Z,6.27
2023-05-14T04:55:37.479Z,5.17
2023-05-14T04:58:05.684Z,5.27
2023-05-14T05:00:34.331Z,5.00
2023-05-14T05:03:02.594Z,5.73
2023-05-14T05:05:32.451Z,5.70
2023-05-14T05:08:00.596Z,4.70
2023-05-14T05:10:28.794Z,4.97
2023-05-14T05:12:57.029Z,4.47
2023-05-14T05:15:26.582Z,5.33
2023-05-14T05:17:55.073Z,4.27
2023-05-14T05:20:23.649Z,4.43
2023-05-14T05:22:53.454Z,4.57
2023-05-14T05:25:21.723Z,5.03
2023-05-14T05:27:50.115Z,4.17
2023-05-14T05:30:18.363Z,4.50
2023-05-14T05:32:46.782Z,4.83
2023-05-14T05:35:15.045Z,3.97
2023-05-14T05:37:45.363Z,4.17
2023-05-14T05:40:15.940Z,3.67
2023-05-14T05:42:44.130Z,4.07
2023-05-14T05:45:12.678Z,3.97
2023-05-14T05:47:41.087Z,3.97
2023-05-14T05:50:10.745Z,3.90
2023-05-14T05:52:39.258Z,3.77
2023-05-14T05:55:08.197Z,4.37
2023-05-14T05:57:37.829Z,4.13
2023-05-14T06:00:13.157Z,4.07
2023-05-14T06:02:42.047Z,3.87
2023-05-14T06:05:11.676Z,3.70
2023-05-14T06:07:40.179Z,3.93
2023-05-14T06:10:09.521Z,3.83
2023-05-14T06:12:39.179Z,3.67
2023-05-14T06:15:08.559Z,3.53
2023-05-14T06:17:36.795Z,3.53
2023-05-14T06:20:08.065Z,3.40
2023-05-14T06:22:36.513Z,3.73
2023-05-14T06:25:05.236Z,3.83
2023-05-14T06:27:33.549Z,4.10
2023-05-14T06:30:03.302Z,3.60
2023-05-14T06:32:31.511Z,3.30
2023-05-14T06:34:59.667Z,4.20
2023-05-14T06:37:29.091Z,3.87
2023-05-14T06:39:58.053Z,3.70
2023-05-14T06:42:26.536Z,3.60
2023-05-14T06:44:54.783Z,3.50
2023-05-14T06:47:24.643Z,3.37
2023-05-14T06:49:52.887Z,3.47
2023-05-14T06:52:21.098Z,3.60
2023-05-14T06:54:49.314Z,3.17
2023-05-14T06:57:17.559Z,3.20
2023-05-14T06:59:45.730Z,3.20
2023-05-14T07:02:13.973Z,2.70
2023-05-14T07:04:43.715Z,3.13
2023-05-14T07:07:15.515Z,3.47
2023-05-14T07:09:43.780Z,2.40
2023-05-14T07:12:12.052Z,2.83
2023-05-14T07:14:40.299Z,2.50
2023-05-14T07:17:08.599Z,2.70
2023-05-14T07:19:36.871Z,2.73
2023-05-14T07:22:06.648Z,2.53
2023-05-14T07:24:34.878Z,2.40
2023-05-14T07:27:03.132Z,2.80
2023-05-14T07:29:31.415Z,2.50
2023-05-14T07:31:59.645Z,3.00
2023-05-14T07:34:27.957Z,2.60
2023-05-14T07:36:56.370Z,2.70
2023-05-14T07:39:26.079Z,2.43
2023-05-14T07:41:55.002Z,2.40
2023-05-14T07:44:23.328Z,2.30
2023-05-14T07:46:51.622Z,1.90
2023-05-14T07:49:20.016Z,1.80
2023-05-14T07:51:48.348Z,1.63
2023-05-14T07:54:16.866Z,1.40
2023-05-14T07:56:46.563Z,1.70
2023-05-14T07:59:14.834Z,1.00
2023-05-14T08:01:43.260Z,0.60
2023-05-14T08:04:12.150Z,0.83
2023-05-14T08:06:40.571Z,0.73
2023-05-14T08:09:08.825Z,0.80
2023-05-14T08:11:37.124Z,1.10
2023-05-14T08:14:06.859Z,0.90
2023-05-14T08:16:35.301Z,0.90
2023-05-14T08:19:03.627Z,0.70
2023-05-14T08:21:31.951Z,0.83
2023-05-14T08:24:00.634Z,0.80
2023-05-14T08:26:28.901Z,0.50
2023-05-14T08:28:57.161Z,0.87
2023-05-14T08:31:27.058Z,0.80
2023-05-14T08:33:55.933Z,0.53
2023-05-14T08:36:24.182Z,0.67
2023-05-14T08:38:52.478Z,0.63
2023-05-14T08:41:21.442Z,0.67
2023-05-14T08:43:59.329Z,0.60
2023-05-14T08:46:31.192Z,1.17
2023-05-14T08:49:09.002Z,0.60
2023-05-14T08:51:37.750Z,0.60
2023-05-14T08:54:07.297Z,0.30
2023-05-14T08:56:36.115Z,0.80
2023-05-14T08:59:05.084Z,0.70
2023-05-14T09:01:34.953Z,0.50
2023-05-14T09:04:07.245Z,0.53
2023-05-14T09:06:37.532Z,0.50
2023-05-14T09:09:06.011Z,0.53
2023-05-14T09:11:34.260Z,0.50
2023-05-14T09:14:02.594Z,0.40
2023-05-14T09:16:31.074Z,0.60
2023-05-14T09:19:00.878Z,0.30
2023-05-14T09:21:32.162Z,0.40
2023-05-14T09:24:01.728Z,0.43
2023-05-14T09:26:33.592Z,0.60
2023-05-14T09:29:03.550Z,0.50
2023-05-14T09:31:33.054Z,0.43
2023-05-14T09:34:02.753Z,0.40
2023-05-14T09:36:31.754Z,0.40
2023-05-14T09:39:00.007Z,0.40
2023-05-14T09:41:28.222Z,0.33
2023-05-14T09:43:57.451Z,0.40
2023-05-14T09:46:30.280Z,0.30
2023-05-14T09:48:58.661Z,0.20
2023-05-14T09:51:32.767Z,0.30
2023-05-14T09:54:01.940Z,0.40
2023-05-14T09:56:30.237Z,0.30
2023-05-14T09:58:58.436Z,0.33
2023-05-14T10:01:27.678Z,0.40
2023-05-14T10:03:56.366Z,0.30
2023-05-14T10:06:27.112Z,0.20
2023-05-14T10:08:58.735Z,0.33
2023-05-14T10:11:32.308Z,0.50
2023-05-14T10:14:05.248Z,0.33
2023-05-14T10:16:39.241Z,0.60
2023-05-14T10:19:10.578Z,0.50
2023-05-14T10:21:41.605Z,0.40
2023-05-14T10:24:12.775Z,0.30
2023-05-14T10:26:42.374Z,0.40
2023-05-14T10:29:11.996Z,0.43
2023-05-14T10:31:51.349Z,0.50
2023-05-14T10:34:38.871Z,0.30
2023-05-14T10:37:10.458Z,0.30
2023-05-14T10:39:47.544Z,0.40
2023-05-14T10:42:19.204Z,0.43
2023-05-14T10:44:53.833Z,0.50
2023-05-14T10:47:25.674Z,0.30
2023-05-14T10:49:55.803Z,0.37
2023-05-14T10:52:26.818Z,0.40
2023-05-14T10:54:58.515Z,0.33
2023-05-14T10:57:30.055Z,0.30
2023-05-14T11:00:00.034Z,0.30
2023-05-14T11:02:30.429Z,0.40
2023-05-14T11:05:03.736Z,0.30
2023-05-14T11:07:33.511Z,0.30
2023-05-14T11:10:05.367Z,0.37
2023-05-14T11:12:33.942Z,0.30
2023-05-14T11:15:04.067Z,0.30
2023-05-14T11:17:33.430Z,0.30
2023-05-14T11:20:01.721Z,0.30
2023-05-14T11:22:30.168Z,0.20
2023-05-14T11:24:58.794Z,0.10
2023-05-14T11:27:28.718Z,0.40
2023-05-14T11:29:58.197Z,0.33
2023-05-14T11:32:27.226Z,0.30
2023-05-14T11:34:56.058Z,0.20
2023-05-14T11:37:24.292Z,0.20
2023-05-14T11:39:53.732Z,0.20
2023-05-14T11:42:23.928Z,0.30
2023-05-14T11:44:55.306Z,0.20
2023-05-14T11:47:24.166Z,0.20
2023-05-14T11:49:52.395Z,0.30
2023-05-14T11:52:22.066Z,0.30
2023-05-14T11:54:51.056Z,0.20
2023-05-14T11:57:21.729Z,0.20
2023-05-14T11:59:56.920Z,0.10
2023-05-14T12:02:29.513Z,0.20
2023-05-14T12:04:58.703Z,0.20
2023-05-14T12:07:31.216Z,0.20
2023-05-14T12:10:02.734Z,0.20
2023-05-14T12:12:37.185Z,0.20
2023-05-14T12:15:13.713Z,0.20
2023-05-14T12:17:43.650Z,0.40
2023-05-14T12:20:13.716Z,0.30
2023-05-14T12:22:43.587Z,0.20
2023-05-14T12:25:14.458Z,0.10
2023-05-14T12:27:45.686Z,0.10
2023-05-14T12:32:49.090Z,0.10
2023-05-14T12:35:17.540Z,0.10
2023-05-14T12:37:45.845Z,0.10
2023-05-14T12:40:14.537Z,0.10
2023-05-14T12:42:42.878Z,0.10
2023-05-14T12:45:11.978Z,0.10
2023-05-14T12:47:40.198Z,0.10
2023-05-14T12:50:10.930Z,0.10
2023-05-14T12:52:39.989Z,0.10
2023-05-14T12:55:09.852Z,0.10
2023-05-14T12:57:39.488Z,0.10
2023-05-14T13:00:13.044Z,0.10
2023-05-14T13:02:43.975Z,0.10
2023-05-14T13:05:14.276Z,0.10
2023-05-14T13:07:42.738Z,0.00
2023-05-14T13:10:12.079Z,0.10
2023-05-14T13:12:40.605Z,0.03
2023-05-14T13:15:10.084Z,0.10
2023-05-14T13:17:38.469Z,0.10
2023-05-14T13:20:08.447Z,0.10
2023-05-14T13:22:38.134Z,0.10
2023-05-14T13:25:07.252Z,0.20
2023-05-14T13:27:37.005Z,0.10
2023-05-14T13:30:05.736Z,0.10
2023-05-14T13:32:34.086Z,0.10
2023-05-14T13:35:02.329Z,0.10
2023-05-14T13:37:30.601Z,0.10
2023-05-14T13:40:00.289Z,0.00
2023-05-14T13:42:28.549Z,0.20
2023-05-14T13:44:57.245Z,0.13
2023-05-14T13:47:25.573Z,0.10
2023-05-14T13:49:54.304Z,0.10
2023-05-14T13:52:22.986Z,0.03
2023-05-14T13:54:51.320Z,0.10
2023-05-14T13:57:21.581Z,0.10
2023-05-14T13:59:50.023Z,0.10
2023-05-14T14:02:18.308Z,0.10
2023-05-14T14:04:46.636Z,0.10
2023-05-14T14:07:14.906Z,0.10
2023-05-14T14:09:43.153Z,0.10
2023-05-14T14:12:11.856Z,0.10
2023-05-14T14:14:41.582Z,0.13
2023-05-14T14:17:10.097Z,0.10
2023-05-14T14:19:38.332Z,0.20
2023-05-14T14:22:06.708Z,0.10
2023-05-14T14:24:34.915Z,0.13
2023-05-14T14:27:03.242Z,0.20
2023-05-14T14:29:31.425Z,0.10
2023-05-14T14:32:01.243Z,0.10
2023-05-14T14:34:29.658Z,0.10
2023-05-14T14:36:57.928Z,0.10
2023-05-14T14:39:26.679Z,0.10
2023-05-14T14:41:54.954Z,0.10
2023-05-14T14:44:23.401Z,0.10
2023-05-14T14:46:51.652Z,0.10
2023-05-14T14:49:21.289Z,0.10
2023-05-14T14:51:49.548Z,0.10
2023-05-14T14:54:17.718Z,0.10
2023-05-14T14:56:46.111Z,0.10
2023-05-14T14:59:14.279Z,0.10
2023-05-14T15:01:42.600Z,0.27
2023-05-14T15:04:10.861Z,0.00
2023-05-14T15:06:40.625Z,0.10
2023-05-14T15:09:09.332Z,0.20
2023-05-14T15:11:37.816Z,0.10
2023-05-14T15:14:06.272Z,0.10
2023-05-14T15:16:34.546Z,0.10
2023-05-14T15:19:02.893Z,0.10
2023-05-14T15:21:32.066Z,0.10
2023-05-14T15:24:01.709Z,0.10
2023-05-14T15:26:29.932Z,0.10
2023-05-14T15:28:59.071Z,0.20
2023-05-14T15:31:27.457Z,0.17
2023-05-14T15:33:56.216Z,0.10
2023-05-14T15:36:24.413Z,0.10
2023-05-14T15:38:52.665Z,0.20
2023-05-14T15:41:22.865Z,0.20
2023-05-14T15:43:51.060Z,0.20
2023-05-14T15:46:19.359Z,0.20
2023-05-14T15:48:47.697Z,0.20
2023-05-14T15:51:16.116Z,0.20
2023-05-14T15:53:44.427Z,0.20
2023-05-14T15:56:12.734Z,0.20
2023-05-14T15:58:42.433Z,0.40
2023-05-14T16:01:10.694Z,0.40
2023-05-14T16:03:39.067Z,0.33
2023-05-14T16:06:08.051Z,0.20
2023-05-14T16:08:36.378Z,0.20
2023-05-14T16:11:04.812Z,0.20
2023-05-14T16:13:33.187Z,0.30
2023-05-14T16:16:02.991Z,0.20
2023-05-14T16:18:31.359Z,0.20
2023-05-14T16:20:59.535Z,0.30
2023-05-14T16:23:28.104Z,0.20
2023-05-14T16:25:56.447Z,0.20
2023-05-14T16:28:24.796Z,0.10
2023-05-14T16:30:53.068Z,0.30
2023-05-14T16:33:22.791Z,0.30
2023-05-14T16:35:51.433Z,0.57
2023-05-14T16:38:20.564Z,0.40
2023-05-14T16:40:48.829Z,0.37
2023-05-14T16:43:17.093Z,0.43
2023-05-14T16:45:45.504Z,0.20
2023-05-14T16:48:13.911Z,0.20
2023-05-14T16:50:43.684Z,0.40
2023-05-14T16:53:11.966Z,0.50
2023-05-14T16:55:40.333Z,1.30
2023-05-14T16:58:08.524Z,1.30
2023-05-14T17:00:36.726Z,0.50
2023-05-14T17:03:05.073Z,6.77
2023-05-14T17:05:33.572Z,4.97
2023-05-14T17:08:04.703Z,0.70
2023-05-14T17:10:33.444Z,0.30
2023-05-14T17:13:02.454Z,0.30
2023-05-14T17:15:31.057Z,0.20
2023-05-14T17:17:59.712Z,0.03
2023-05-14T17:20:28.782Z,0.10
2023-05-14T17:22:57.177Z,0.03
2023-05-14T17:25:27.199Z,0.10
2023-05-14T17:27:55.420Z,0.10
2023-05-14T17:30:23.691Z,0.10
2023-05-14T17:32:52.029Z,0.10
2023-05-14T17:35:20.415Z,0.20
2023-05-14T17:37:48.866Z,0.10
2023-05-14T17:40:17.081Z,0.10
2023-05-14T17:42:46.833Z,0.10
2023-05-14T17:45:15.744Z,0.10
2023-05-14T17:47:43.941Z,0.10
2023-05-14T17:50:12.471Z,0.20
2023-05-14T17:52:42.330Z,0.20
2023-05-14T17:55:10.859Z,0.30
2023-05-14T17:57:39.258Z,0.30
2023-05-14T18:00:10.165Z,0.20
2023-05-14T18:02:38.393Z,0.20
2023-05-14T18:05:07.636Z,0.17
2023-05-14T18:07:36.984Z,0.10
2023-05-14T18:10:05.631Z,0.10
2023-05-14T18:12:33.882Z,0.10
2023-05-14T18:15:02.221Z,1.27
2023-05-14T18:17:32.005Z,0.90
2023-05-14T18:20:00.322Z,1.07
2023-05-14T18:22:28.620Z,1.60
2023-05-14T18:27:44.675Z,0.60
2023-05-14T18:30:14.732Z,0.60
2023-05-14T18:32:45.738Z,1.10
2023-05-14T18:35:14.869Z,1.10
2023-05-14T18:37:43.223Z,0.67
2023-05-14T18:40:16.877Z,0.53
2023-05-14T18:42:47.134Z,0.30
2023-05-14T18:45:15.473Z,0.33
2023-05-14T18:47:45.383Z,0.23
2023-05-14T18:50:13.620Z,0.30
2023-05-14T18:52:41.866Z,0.50
2023-05-14T18:55:10.921Z,0.40
2023-05-14T18:57:39.350Z,0.57
2023-05-14T19:00:09.227Z,0.30
2023-05-14T19:02:37.577Z,0.20
2023-05-14T19:05:08.411Z,0.40
2023-05-14T19:07:37.999Z,0.27
2023-05-14T19:10:07.394Z,0.20
2023-05-14T19:12:35.677Z,0.13
2023-05-14T19:15:04.642Z,0.40
2023-05-14T19:17:33.587Z,0.10
2023-05-14T19:20:01.960Z,0.20
2023-05-14T19:22:31.654Z,0.10
2023-05-14T19:24:59.924Z,0.10
2023-05-14T19:27:28.326Z,0.10
2023-05-14T19:29:56.528Z,0.10
2023-05-14T19:32:24.836Z,0.23
2023-05-14T19:34:53.068Z,0.10
2023-05-14T19:37:21.468Z,0.10
2023-05-14T19:39:51.241Z,0.20
2023-05-14T19:42:19.618Z,0.10
2023-05-14T19:44:47.835Z,0.10
2023-05-14T19:47:16.414Z,0.10
2023-05-14T19:49:44.731Z,0.20
2023-05-14T19:52:12.959Z,0.10
2023-05-14T19:54:41.729Z,0.10
2023-05-14T19:57:12.246Z,0.20
2023-05-14T19:59:41.556Z,0.20
2023-05-14T20:02:12.506Z,0.20
2023-05-14T20:04:40.999Z,0.10
2023-05-14T20:07:10.202Z,0.20
2023-05-14T20:09:38.772Z,0.30
2023-05-14T20:12:07.785Z,0.30
2023-05-14T20:14:39.422Z,0.20
2023-05-14T20:17:07.807Z,0.20
2023-05-14T20:19:36.501Z,0.23
2023-05-14T20:22:04.756Z,0.20
2023-05-14T20:24:34.512Z,0.30
2023-05-14T20:27:28.664Z,0.27
2023-05-14T20:29:59.505Z,0.30
2023-05-14T20:32:27.700Z,0.20
2023-05-14T20:34:55.847Z,0.30
2023-05-14T20:37:25.586Z,0.30
2023-05-14T20:39:53.734Z,0.20
2023-05-14T20:42:22.002Z,0.30
2023-05-14T20:44:51.328Z,0.43
2023-05-14T20:47:23.256Z,0.40
2023-05-14T20:49:52.283Z,0.33
2023-05-14T20:52:20.598Z,0.50
2023-05-14T20:54:49.198Z,0.30
2023-05-14T20:57:17.757Z,0.40
2023-05-14T20:59:46.843Z,0.33
2023-05-14T21:02:15.328Z,0.40
2023-05-14T21:04:45.243Z,0.67
2023-05-14T21:07:13.482Z,0.30
2023-05-14T21:09:42.088Z,0.50
2023-05-14T21:12:11.214Z,0.50
2023-05-14T21:14:39.526Z,0.60
2023-05-14T21:17:08.222Z,0.30
2023-05-14T21:19:36.590Z,0.50
2023-05-14T21:22:06.701Z,0.63
2023-05-14T21:24:34.938Z,0.60
2023-05-14T21:27:03.513Z,0.30
2023-05-14T21:29:31.739Z,0.30
2023-05-14T21:32:00.157Z,0.60
2023-05-14T21:34:29.747Z,0.40
2023-05-14T21:36:59.282Z,0.40
2023-05-14T21:39:30.975Z,0.40
2023-05-14T21:42:00.234Z,0.40
2023-05-14T21:44:28.456Z,0.40
2023-05-14T21:46:57.039Z,0.30
2023-05-14T21:49:25.364Z,0.40
2023-05-14T21:51:55.262Z,0.50
2023-05-14T21:54:24.038Z,0.30
2023-05-14T21:56:53.737Z,0.30
2023-05-14T21:59:22.856Z,0.50
2023-05-14T22:02:06.294Z,0.50
2023-05-14T22:04:35.803Z,0.30
2023-05-14T22:07:03.982Z,0.50
2023-05-14T22:09:32.788Z,0.40
2023-05-14T22:12:02.469Z,0.40
2023-05-14T22:14:30.589Z,0.30
2023-05-14T22:16:58.873Z,0.40
2023-05-14T22:19:28.339Z,0.50
2023-05-14T22:21:57.034Z,0.47
2023-05-14T22:24:26.187Z,0.30
2023-05-14T22:26:54.795Z,0.37
2023-05-14T22:29:24.421Z,0.50
2023-05-14T22:31:52.805Z,0.40
2023-05-14T22:34:21.082Z,0.30
2023-05-14T22:36:49.307Z,0.70
2023-05-14T22:39:17.408Z,0.40
2023-05-14T22:41:45.940Z,0.50
2023-05-14T22:44:14.194Z,0.70
2023-05-14T22:46:43.868Z,0.30
2023-05-14T22:49:12.072Z,0.50
2023-05-14T22:51:40.396Z,0.40
2023-05-14T22:54:08.588Z,0.43
2023-05-14T22:56:37.229Z,0.43
2023-05-14T22:59:05.525Z,0.43
2023-05-14T23:01:33.849Z,0.30
2023-05-14T23:04:03.585Z,0.50
2023-05-14T23:06:32.250Z,0.40
2023-05-14T23:09:00.599Z,0.40
2023-05-14T23:11:28.850Z,0.20
2023-05-14T23:13:57.166Z,0.33
2023-05-14T23:16:26.086Z,0.30
2023-05-14T23:18:54.539Z,0.40
2023-05-14T23:21:24.383Z,0.37
2023-05-14T23:23:52.598Z,0.40
2023-05-14T23:26:21.683Z,0.40
2023-05-14T23:28:49.848Z,0.40
2023-05-14T23:31:18.045Z,0.20
2023-05-14T23:33:46.771Z,0.20
2023-05-14T23:36:15.050Z,0.20
2023-05-14T23:38:44.896Z,0.40
2023-05-14T23:41:13.095Z,0.73
2023-05-14T23:43:41.230Z,0.40
2023-05-14T23:46:09.522Z,0.50
2023-05-14T23:48:37.758Z,0.83
2023-05-14T23:51:05.953Z,0.80
2023-05-14T23:53:34.055Z,0.60
2023-05-14T23:56:03.729Z,0.80
2023-05-14T23:58:33.053Z,0.90
